sensor_id;sensor_type;location;lat;lon;timestamp;P1;durP1;ratioP1;P2;durP2;ratioP2
24799;SDS011;12897;50.812;4.430;2023-08-30T00:02:08;8.48;;;3.72;;
24799;SDS011;12897;50.812;4.430;2023-08-30T00:04:35;8.43;;;3.37;;
24799;SDS011;12897;50.812;4.430;2023-08-30T00:07:03;7.08;;;4.10;;
24799;SDS011;12897;50.812;4.430;2023-08-30T00:09:32;7.35;;;4.17;;
24799;SDS011;12897;50.812;4.430;2023-08-30T00:12:08;5.27;;;3.40;;
24799;SDS011;12897;50.812;4.430;2023-08-30T00:14:32;6.70;;;3.72;;
24799;SDS011;12897;50.812;4.430;2023-08-30T00:17:00;6.50;;;3.30;;
24799;SDS011;12897;50.812;4.430;2023-08-30T00:19:28;7.87;;;3.55;;
24799;SDS011;12897;50.812;4.430;2023-08-30T00:21:57;6.70;;;3.62;;
24799;SDS011;12897;50.812;4.430;2023-08-30T00:24:24;6.40;;;3.58;;
24799;SDS011;12897;50.812;4.430;2023-08-30T00:26:55;8.50;;;3.90;;
24799;SDS011;12897;50.812;4.430;2023-08-30T00:29:23;7.42;;;4.00;;
24799;SDS011;12897;50.812;4.430;2023-08-30T00:31:50;11.12;;;4.50;;
24799;SDS011;12897;50.812;4.430;2023-08-30T00:34:18;9.20;;;4.58;;
24799;SDS011;12897;50.812;4.430;2023-08-30T00:36:46;9.58;;;3.37;;
24799;SDS011;12897;50.812;4.430;2023-08-30T00:39:14;13.25;;;4.10;;
24799;SDS011;12897;50.812;4.430;2023-08-30T00:41:41;9.13;;;3.45;;
24799;SDS011;12897;50.812;4.430;2023-08-30T00:44:09;9.93;;;3.70;;
24799;SDS011;12897;50.812;4.430;2023-08-30T00:46:37;7.28;;;3.50;;
24799;SDS011;12897;50.812;4.430;2023-08-30T00:49:04;7.25;;;3.35;;
24799;SDS011;12897;50.812;4.430;2023-08-30T00:51:33;10.98;;;3.67;;
24799;SDS011;12897;50.812;4.430;2023-08-30T00:54:01;9.53;;;3.90;;
24799;SDS011;12897;50.812;4.430;2023-08-30T00:56:29;8.65;;;3.90;;
24799;SDS011;12897;50.812;4.430;2023-08-30T00:58:57;6.15;;;3.55;;
24799;SDS011;12897;50.812;4.430;2023-08-30T01:01:25;7.80;;;3.55;;
24799;SDS011;12897;50.812;4.430;2023-08-30T01:03:53;6.08;;;3.90;;
24799;SDS011;12897;50.812;4.430;2023-08-30T01:06:26;8.33;;;3.85;;
24799;SDS011;12897;50.812;4.430;2023-08-30T01:08:50;8.88;;;3.70;;
24799;SDS011;12897;50.812;4.430;2023-08-30T01:11:22;9.48;;;4.08;;
24799;SDS011;12897;50.812;4.430;2023-08-30T01:14:00;13.20;;;4.25;;
24799;SDS011;12897;50.812;4.430;2023-08-30T01:16:25;11.35;;;4.17;;
24799;SDS011;12897;50.812;4.430;2023-08-30T01:18:55;9.45;;;4.45;;
24799;SDS011;12897;50.812;4.430;2023-08-30T01:21:41;11.53;;;4.72;;
24799;SDS011;12897;50.812;4.430;2023-08-30T01:24:07;12.85;;;4.20;;
24799;SDS011;12897;50.812;4.430;2023-08-30T01:26:39;11.22;;;4.58;;
24799;SDS011;12897;50.812;4.430;2023-08-30T01:29:07;12.63;;;4.97;;
24799;SDS011;12897;50.812;4.430;2023-08-30T01:31:38;9.83;;;4.70;;
24799;SDS011;12897;50.812;4.430;2023-08-30T01:34:07;9.45;;;5.37;;
24799;SDS011;12897;50.812;4.430;2023-08-30T01:36:39;13.98;;;5.65;;
24799;SDS011;12897;50.812;4.430;2023-08-30T01:39:10;12.58;;;6.30;;
24799;SDS011;12897;50.812;4.430;2023-08-30T01:41:38;10.93;;;4.92;;
24799;SDS011;12897;50.812;4.430;2023-08-30T01:44:08;9.20;;;5.28;;
24799;SDS011;12897;50.812;4.430;2023-08-30T01:49:05;10.78;;;6.45;;
24799;SDS011;12897;50.812;4.430;2023-08-30T01:51:36;13.70;;;6.35;;
24799;SDS011;12897;50.812;4.430;2023-08-30T01:54:04;8.93;;;5.92;;
24799;SDS011;12897;50.812;4.430;2023-08-30T01:56:34;11.55;;;5.95;;
24799;SDS011;12897;50.812;4.430;2023-08-30T01:59:02;14.33;;;6.03;;
24799;SDS011;12897;50.812;4.430;2023-08-30T02:01:29;10.78;;;6.47;;
24799;SDS011;12897;50.812;4.430;2023-08-30T02:03:57;10.63;;;6.55;;
24799;SDS011;12897;50.812;4.430;2023-08-30T02:06:31;9.67;;;7.03;;
24799;SDS011;12897;50.812;4.430;2023-08-30T02:09:25;9.10;;;6.37;;
24799;SDS011;12897;50.812;4.430;2023-08-30T02:11:50;13.38;;;6.62;;
24799;SDS011;12897;50.812;4.430;2023-08-30T02:14:19;14.43;;;7.05;;
24799;SDS011;12897;50.812;4.430;2023-08-30T02:16:50;13.55;;;6.90;;
24799;SDS011;12897;50.812;4.430;2023-08-30T02:19:18;12.47;;;6.72;;
24799;SDS011;12897;50.812;4.430;2023-08-30T02:21:47;14.03;;;7.15;;
24799;SDS011;12897;50.812;4.430;2023-08-30T02:24:15;13.48;;;7.12;;
24799;SDS011;12897;50.812;4.430;2023-08-30T02:26:43;12.82;;;6.87;;
24799;SDS011;12897;50.812;4.430;2023-08-30T02:29:10;14.78;;;6.85;;
24799;SDS011;12897;50.812;4.430;2023-08-30T02:31:39;11.22;;;6.12;;
24799;SDS011;12897;50.812;4.430;2023-08-30T02:34:06;17.42;;;7.05;;
24799;SDS011;12897;50.812;4.430;2023-08-30T02:36:37;12.23;;;6.92;;
24799;SDS011;12897;50.812;4.430;2023-08-30T02:39:04;11.78;;;7.03;;
24799;SDS011;12897;50.812;4.430;2023-08-30T02:41:32;10.45;;;6.65;;
24799;SDS011;12897;50.812;4.430;2023-08-30T02:44:00;12.35;;;6.30;;
24799;SDS011;12897;50.812;4.430;2023-08-30T02:46:27;14.95;;;6.40;;
24799;SDS011;12897;50.812;4.430;2023-08-30T02:48:55;14.38;;;7.00;;
24799;SDS011;12897;50.812;4.430;2023-08-30T02:51:23;10.05;;;6.10;;
24799;SDS011;12897;50.812;4.430;2023-08-30T02:53:54;10.58;;;6.47;;
24799;SDS011;12897;50.812;4.430;2023-08-30T02:56:21;16.12;;;6.47;;
24799;SDS011;12897;50.812;4.430;2023-08-30T02:58:49;15.58;;;7.03;;
24799;SDS011;12897;50.812;4.430;2023-08-30T03:01:16;15.00;;;7.60;;
24799;SDS011;12897;50.812;4.430;2023-08-30T03:03:45;15.50;;;7.12;;
24799;SDS011;12897;50.812;4.430;2023-08-30T03:06:15;12.25;;;7.22;;
24799;SDS011;12897;50.812;4.430;2023-08-30T03:08:43;18.05;;;7.97;;
24799;SDS011;12897;50.812;4.430;2023-08-30T03:11:12;14.58;;;7.22;;
24799;SDS011;12897;50.812;4.430;2023-08-30T03:13:40;15.32;;;6.40;;
24799;SDS011;12897;50.812;4.430;2023-08-30T03:16:10;12.75;;;6.90;;
24799;SDS011;12897;50.812;4.430;2023-08-30T03:18:41;15.88;;;7.75;;
24799;SDS011;12897;50.812;4.430;2023-08-30T03:21:14;16.23;;;7.20;;
24799;SDS011;12897;50.812;4.430;2023-08-30T03:23:39;15.90;;;7.83;;
24799;SDS011;12897;50.812;4.430;2023-08-30T03:26:14;14.65;;;7.35;;
24799;SDS011;12897;50.812;4.430;2023-08-30T03:28:43;12.58;;;6.92;;
24799;SDS011;12897;50.812;4.430;2023-08-30T03:33:44;14.85;;;6.85;;
24799;SDS011;12897;50.812;4.430;2023-08-30T03:36:12;14.98;;;7.58;;
24799;SDS011;12897;50.812;4.430;2023-08-30T03:38:41;12.28;;;7.50;;
24799;SDS011;12897;50.812;4.430;2023-08-30T03:41:11;15.48;;;6.97;;
24799;SDS011;12897;50.812;4.430;2023-08-30T03:43:39;14.78;;;7.17;;
24799;SDS011;12897;50.812;4.430;2023-08-30T03:46:07;14.33;;;6.47;;
24799;SDS011;12897;50.812;4.430;2023-08-30T03:48:39;12.55;;;6.78;;
24799;SDS011;12897;50.812;4.430;2023-08-30T03:51:07;13.30;;;6.78;;
24799;SDS011;12897;50.812;4.430;2023-08-30T03:53:35;13.78;;;6.42;;
24799;SDS011;12897;50.812;4.430;2023-08-30T03:56:02;14.40;;;6.08;;
24799;SDS011;12897;50.812;4.430;2023-08-30T03:58:30;10.20;;;5.47;;
24799;SDS011;12897;50.812;4.430;2023-08-30T04:00:58;11.70;;;5.97;;
24799;SDS011;12897;50.812;4.430;2023-08-30T04:03:26;12.65;;;6.55;;
24799;SDS011;12897;50.812;4.430;2023-08-30T04:06:03;14.73;;;5.85;;
24799;SDS011;12897;50.812;4.430;2023-08-30T04:08:42;13.53;;;6.47;;
24799;SDS011;12897;50.812;4.430;2023-08-30T04:11:10;12.05;;;5.55;;
24799;SDS011;12897;50.812;4.430;2023-08-30T04:13:38;11.83;;;6.45;;
24799;SDS011;12897;50.812;4.430;2023-08-30T04:16:05;14.50;;;6.90;;
24799;SDS011;12897;50.812;4.430;2023-08-30T04:18:34;9.23;;;5.28;;
24799;SDS011;12897;50.812;4.430;2023-08-30T04:21:02;12.10;;;6.83;;
24799;SDS011;12897;50.812;4.430;2023-08-30T04:23:29;10.40;;;6.03;;
24799;SDS011;12897;50.812;4.430;2023-08-30T04:25:57;9.18;;;5.28;;
24799;SDS011;12897;50.812;4.430;2023-08-30T04:28:24;12.88;;;6.17;;
24799;SDS011;12897;50.812;4.430;2023-08-30T04:30:54;10.65;;;5.40;;
24799;SDS011;12897;50.812;4.430;2023-08-30T04:33:23;13.50;;;5.78;;
24799;SDS011;12897;50.812;4.430;2023-08-30T04:35:52;12.35;;;6.10;;
24799;SDS011;12897;50.812;4.430;2023-08-30T04:38:22;16.12;;;6.53;;
24799;SDS011;12897;50.812;4.430;2023-08-30T04:40:50;14.23;;;5.97;;
24799;SDS011;12897;50.812;4.430;2023-08-30T04:43:21;13.75;;;5.80;;
24799;SDS011;12897;50.812;4.430;2023-08-30T04:51:40;12.90;;;6.55;;
24799;SDS011;12897;50.812;4.430;2023-08-30T04:54:12;14.15;;;6.40;;
24799;SDS011;12897;50.812;4.430;2023-08-30T04:56:41;22.98;;;7.70;;
24799;SDS011;12897;50.812;4.430;2023-08-30T04:59:09;16.25;;;7.80;;
24799;SDS011;12897;50.812;4.430;2023-08-30T05:01:36;15.30;;;6.22;;
24799;SDS011;12897;50.812;4.430;2023-08-30T05:04:05;16.10;;;6.75;;
24799;SDS011;12897;50.812;4.430;2023-08-30T05:06:33;14.47;;;6.28;;
24799;SDS011;12897;50.812;4.430;2023-08-30T05:09:00;15.78;;;7.08;;
24799;SDS011;12897;50.812;4.430;2023-08-30T05:11:29;19.55;;;7.30;;
24799;SDS011;12897;50.812;4.430;2023-08-30T05:13:57;19.60;;;7.47;;
24799;SDS011;12897;50.812;4.430;2023-08-30T05:16:26;18.60;;;7.20;;
24799;SDS011;12897;50.812;4.430;2023-08-30T05:18:56;14.63;;;6.75;;
24799;SDS011;12897;50.812;4.430;2023-08-30T05:21:24;13.73;;;6.60;;
24799;SDS011;12897;50.812;4.430;2023-08-30T05:23:52;11.67;;;6.17;;
24799;SDS011;12897;50.812;4.430;2023-08-30T05:26:19;12.90;;;6.20;;
24799;SDS011;12897;50.812;4.430;2023-08-30T05:28:53;16.03;;;6.20;;
24799;SDS011;12897;50.812;4.430;2023-08-30T05:31:17;16.60;;;6.50;;
24799;SDS011;12897;50.812;4.430;2023-08-30T05:33:45;12.95;;;7.03;;
24799;SDS011;12897;50.812;4.430;2023-08-30T05:36:16;11.95;;;6.53;;
24799;SDS011;12897;50.812;4.430;2023-08-30T05:38:50;14.87;;;7.83;;
24799;SDS011;12897;50.812;4.430;2023-08-30T05:41:17;15.10;;;6.62;;
24799;SDS011;12897;50.812;4.430;2023-08-30T05:43:45;16.75;;;7.20;;
24799;SDS011;12897;50.812;4.430;2023-08-30T05:46:12;14.50;;;7.70;;
24799;SDS011;12897;50.812;4.430;2023-08-30T05:48:42;13.50;;;7.08;;
24799;SDS011;12897;50.812;4.430;2023-08-30T05:51:11;12.60;;;7.33;;
24799;SDS011;12897;50.812;4.430;2023-08-30T05:53:38;14.40;;;7.62;;
24799;SDS011;12897;50.812;4.430;2023-08-30T05:56:06;14.25;;;7.65;;
24799;SDS011;12897;50.812;4.430;2023-08-30T05:58:41;12.30;;;6.60;;
24799;SDS011;12897;50.812;4.430;2023-08-30T06:01:20;15.13;;;7.17;;
24799;SDS011;12897;50.812;4.430;2023-08-30T06:03:45;11.35;;;6.97;;
24799;SDS011;12897;50.812;4.430;2023-08-30T06:06:15;12.37;;;6.53;;
24799;SDS011;12897;50.812;4.430;2023-08-30T06:11:11;8.15;;;5.90;;
24799;SDS011;12897;50.812;4.430;2023-08-30T06:13:41;12.55;;;7.08;;
24799;SDS011;12897;50.812;4.430;2023-08-30T06:16:09;14.60;;;6.33;;
24799;SDS011;12897;50.812;4.430;2023-08-30T06:18:37;9.43;;;5.60;;
24799;SDS011;12897;50.812;4.430;2023-08-30T06:21:04;14.33;;;7.95;;
24799;SDS011;12897;50.812;4.430;2023-08-30T06:23:32;9.75;;;4.95;;
24799;SDS011;12897;50.812;4.430;2023-08-30T06:26:04;10.95;;;5.90;;
24799;SDS011;12897;50.812;4.430;2023-08-30T06:28:35;9.53;;;5.10;;
24799;SDS011;12897;50.812;4.430;2023-08-30T06:31:03;7.05;;;4.55;;
24799;SDS011;12897;50.812;4.430;2023-08-30T06:33:33;12.30;;;5.60;;
24799;SDS011;12897;50.812;4.430;2023-08-30T06:36:03;11.00;;;4.85;;
24799;SDS011;12897;50.812;4.430;2023-08-30T06:38:30;16.53;;;6.03;;
24799;SDS011;12897;50.812;4.430;2023-08-30T06:40:58;9.15;;;5.28;;
24799;SDS011;12897;50.812;4.430;2023-08-30T06:43:27;10.23;;;5.50;;
24799;SDS011;12897;50.812;4.430;2023-08-30T06:45:57;9.53;;;4.97;;
24799;SDS011;12897;50.812;4.430;2023-08-30T06:48:25;11.68;;;5.15;;
24799;SDS011;12897;50.812;4.430;2023-08-30T06:50:56;15.85;;;5.72;;
24799;SDS011;12897;50.812;4.430;2023-08-30T06:53:30;9.65;;;5.08;;
24799;SDS011;12897;50.812;4.430;2023-08-30T06:55:57;10.63;;;4.87;;
24799;SDS011;12897;50.812;4.430;2023-08-30T06:58:26;10.50;;;5.12;;
24799;SDS011;12897;50.812;4.430;2023-08-30T07:00:56;10.95;;;5.58;;
24799;SDS011;12897;50.812;4.430;2023-08-30T07:03:24;9.13;;;5.05;;
24799;SDS011;12897;50.812;4.430;2023-08-30T07:05:52;8.10;;;4.92;;
24799;SDS011;12897;50.812;4.430;2023-08-30T07:08:20;10.93;;;5.42;;
24799;SDS011;12897;50.812;4.430;2023-08-30T07:10:48;11.12;;;5.10;;
24799;SDS011;12897;50.812;4.430;2023-08-30T07:13:15;10.50;;;4.95;;
24799;SDS011;12897;50.812;4.430;2023-08-30T07:15:45;9.63;;;5.22;;
24799;SDS011;12897;50.812;4.430;2023-08-30T07:18:16;6.45;;;4.53;;
24799;SDS011;12897;50.812;4.430;2023-08-30T07:20:43;9.85;;;4.90;;
24799;SDS011;12897;50.812;4.430;2023-08-30T07:23:11;7.90;;;5.20;;
24799;SDS011;12897;50.812;4.430;2023-08-30T07:25:39;7.10;;;4.53;;
24799;SDS011;12897;50.812;4.430;2023-08-30T07:28:06;7.70;;;5.08;;
24799;SDS011;12897;50.812;4.430;2023-08-30T07:30:35;7.45;;;4.55;;
24799;SDS011;12897;50.812;4.430;2023-08-30T07:33:04;8.48;;;4.65;;
24799;SDS011;12897;50.812;4.430;2023-08-30T07:35:31;8.68;;;4.08;;
24799;SDS011;12897;50.812;4.430;2023-08-30T07:37:59;7.67;;;4.17;;
24799;SDS011;12897;50.812;4.430;2023-08-30T07:40:27;7.28;;;4.37;;
24799;SDS011;12897;50.812;4.430;2023-08-30T07:42:54;7.10;;;4.35;;
24799;SDS011;12897;50.812;4.430;2023-08-30T07:45:22;5.85;;;3.80;;
24799;SDS011;12897;50.812;4.430;2023-08-30T07:47:49;5.85;;;3.40;;
24799;SDS011;12897;50.812;4.430;2023-08-30T07:50:17;8.23;;;3.58;;
24799;SDS011;12897;50.812;4.430;2023-08-30T07:52:45;7.30;;;4.35;;
24799;SDS011;12897;50.812;4.430;2023-08-30T07:55:12;8.48;;;4.30;;
24799;SDS011;12897;50.812;4.430;2023-08-30T07:57:40;5.67;;;3.77;;
24799;SDS011;12897;50.812;4.430;2023-08-30T08:00:08;8.23;;;4.15;;
24799;SDS011;12897;50.812;4.430;2023-08-30T08:02:36;7.97;;;3.70;;
24799;SDS011;12897;50.812;4.430;2023-08-30T08:05:04;4.33;;;3.35;;
24799;SDS011;12897;50.812;4.430;2023-08-30T08:07:32;7.03;;;4.03;;
24799;SDS011;12897;50.812;4.430;2023-08-30T08:10:00;7.70;;;3.30;;
24799;SDS011;12897;50.812;4.430;2023-08-30T08:12:27;6.40;;;3.90;;
24799;SDS011;12897;50.812;4.430;2023-08-30T08:14:55;7.67;;;3.60;;
24799;SDS011;12897;50.812;4.430;2023-08-30T08:17:22;10.30;;;3.70;;
24799;SDS011;12897;50.812;4.430;2023-08-30T08:19:53;6.42;;;3.15;;
24799;SDS011;12897;50.812;4.430;2023-08-30T08:22:20;5.85;;;3.72;;
24799;SDS011;12897;50.812;4.430;2023-08-30T08:24:50;7.12;;;3.72;;
24799;SDS011;12897;50.812;4.430;2023-08-30T08:27:19;6.87;;;3.85;;
24799;SDS011;12897;50.812;4.430;2023-08-30T08:29:46;6.47;;;3.60;;
24799;SDS011;12897;50.812;4.430;2023-08-30T08:32:14;5.67;;;3.27;;
24799;SDS011;12897;50.812;4.430;2023-08-30T08:34:42;6.00;;;3.58;;
24799;SDS011;12897;50.812;4.430;2023-08-30T08:37:09;6.03;;;3.90;;
24799;SDS011;12897;50.812;4.430;2023-08-30T08:39:37;5.70;;;3.30;;
24799;SDS011;12897;50.812;4.430;2023-08-30T08:42:05;7.47;;;4.33;;
24799;SDS011;12897;50.812;4.430;2023-08-30T08:44:33;6.95;;;4.22;;
24799;SDS011;12897;50.812;4.430;2023-08-30T08:47:02;7.50;;;3.80;;
24799;SDS011;12897;50.812;4.430;2023-08-30T08:49:36;9.98;;;4.85;;
24799;SDS011;12897;50.812;4.430;2023-08-30T08:52:02;7.85;;;5.25;;
24799;SDS011;12897;50.812;4.430;2023-08-30T08:54:31;6.03;;;3.85;;
24799;SDS011;12897;50.812;4.430;2023-08-30T08:56:59;9.03;;;4.95;;
24799;SDS011;12897;50.812;4.430;2023-08-30T08:59:28;7.42;;;4.67;;
24799;SDS011;12897;50.812;4.430;2023-08-30T09:01:55;8.40;;;4.90;;
24799;SDS011;12897;50.812;4.430;2023-08-30T09:04:23;7.65;;;4.25;;
24799;SDS011;12897;50.812;4.430;2023-08-30T09:06:51;6.65;;;4.22;;
24799;SDS011;12897;50.812;4.430;2023-08-30T09:09:19;9.48;;;4.58;;
24799;SDS011;12897;50.812;4.430;2023-08-30T09:11:47;7.87;;;4.90;;
24799;SDS011;12897;50.812;4.430;2023-08-30T09:14:15;7.75;;;4.55;;
24799;SDS011;12897;50.812;4.430;2023-08-30T09:16:42;8.58;;;4.85;;
24799;SDS011;12897;50.812;4.430;2023-08-30T09:19:12;8.93;;;4.87;;
24799;SDS011;12897;50.812;4.430;2023-08-30T09:21:50;8.10;;;5.63;;
24799;SDS011;12897;50.812;4.430;2023-08-30T09:24:18;9.83;;;5.60;;
24799;SDS011;12897;50.812;4.430;2023-08-30T09:26:49;8.08;;;5.40;;
24799;SDS011;12897;50.812;4.430;2023-08-30T09:29:18;9.30;;;5.60;;
24799;SDS011;12897;50.812;4.430;2023-08-30T09:31:50;10.40;;;5.83;;
24799;SDS011;12897;50.812;4.430;2023-08-30T09:34:25;8.05;;;5.37;;
24799;SDS011;12897;50.812;4.430;2023-08-30T09:36:53;9.08;;;5.28;;
24799;SDS011;12897;50.812;4.430;2023-08-30T09:39:21;6.97;;;5.28;;
24799;SDS011;12897;50.812;4.430;2023-08-30T09:41:53;12.58;;;5.70;;
24799;SDS011;12897;50.812;4.430;2023-08-30T09:44:21;9.00;;;5.53;;
24799;SDS011;12897;50.812;4.430;2023-08-30T09:46:54;9.18;;;5.78;;
24799;SDS011;12897;50.812;4.430;2023-08-30T09:49:23;8.23;;;6.00;;
24799;SDS011;12897;50.812;4.430;2023-08-30T09:51:52;11.43;;;5.97;;
24799;SDS011;12897;50.812;4.430;2023-08-30T09:54:23;9.60;;;5.50;;
24799;SDS011;12897;50.812;4.430;2023-08-30T09:56:51;9.97;;;7.07;;
24799;SDS011;12897;50.812;4.430;2023-08-30T09:59:22;9.28;;;6.20;;
24799;SDS011;12897;50.812;4.430;2023-08-30T10:01:51;8.25;;;6.10;;
24799;SDS011;12897;50.812;4.430;2023-08-30T10:04:21;8.33;;;5.87;;
24799;SDS011;12897;50.812;4.430;2023-08-30T10:06:51;10.85;;;6.50;;
24799;SDS011;12897;50.812;4.430;2023-08-30T10:09:20;8.68;;;5.10;;
24799;SDS011;12897;50.812;4.430;2023-08-30T10:11:50;10.53;;;6.70;;
24799;SDS011;12897;50.812;4.430;2023-08-30T10:14:20;9.83;;;6.55;;
24799;SDS011;12897;50.812;4.430;2023-08-30T10:16:51;9.05;;;5.70;;
24799;SDS011;12897;50.812;4.430;2023-08-30T10:19:24;12.15;;;6.20;;
24799;SDS011;12897;50.812;4.430;2023-08-30T10:21:55;9.65;;;7.45;;
24799;SDS011;12897;50.812;4.430;2023-08-30T10:24:42;8.28;;;6.20;;
24799;SDS011;12897;50.812;4.430;2023-08-30T10:27:33;7.92;;;5.80;;
24799;SDS011;12897;50.812;4.430;2023-08-30T10:30:06;10.28;;;6.25;;
24799;SDS011;12897;50.812;4.430;2023-08-30T10:32:47;11.57;;;6.28;;
24799;SDS011;12897;50.812;4.430;2023-08-30T10:35:13;12.28;;;6.58;;
24799;SDS011;12897;50.812;4.430;2023-08-30T10:37:53;9.35;;;6.25;;
24799;SDS011;12897;50.812;4.430;2023-08-30T10:40:23;8.83;;;6.50;;
24799;SDS011;12897;50.812;4.430;2023-08-30T10:43:07;10.20;;;6.85;;
24799;SDS011;12897;50.812;4.430;2023-08-30T10:45:41;8.58;;;5.83;;
24799;SDS011;12897;50.812;4.430;2023-08-30T10:48:09;9.00;;;6.12;;
24799;SDS011;12897;50.812;4.430;2023-08-30T10:50:44;8.88;;;6.03;;
24799;SDS011;12897;50.812;4.430;2023-08-30T10:53:14;13.03;;;6.37;;
24799;SDS011;12897;50.812;4.430;2023-08-30T10:58:42;11.85;;;6.58;;
24799;SDS011;12897;50.812;4.430;2023-08-30T11:01:11;7.80;;;5.83;;
24799;SDS011;12897;50.812;4.430;2023-08-30T11:03:44;9.48;;;6.37;;
24799;SDS011;12897;50.812;4.430;2023-08-30T11:06:14;9.88;;;6.37;;
24799;SDS011;12897;50.812;4.430;2023-08-30T11:08:43;9.33;;;6.05;;
24799;SDS011;12897;50.812;4.430;2023-08-30T11:11:10;8.98;;;6.00;;
24799;SDS011;12897;50.812;4.430;2023-08-30T11:13:40;8.40;;;6.10;;
24799;SDS011;12897;50.812;4.430;2023-08-30T11:16:08;14.98;;;6.22;;
24799;SDS011;12897;50.812;4.430;2023-08-30T11:18:38;22.67;;;7.83;;
24799;SDS011;12897;50.812;4.430;2023-08-30T11:21:07;21.07;;;7.72;;
24799;SDS011;12897;50.812;4.430;2023-08-30T11:23:35;114.03;;;14.63;;
24799;SDS011;12897;50.812;4.430;2023-08-30T11:26:03;164.77;;;22.32;;
24799;SDS011;12897;50.812;4.430;2023-08-30T11:28:31;33.67;;;8.78;;
24799;SDS011;12897;50.812;4.430;2023-08-30T11:31:01;12.80;;;7.17;;
24799;SDS011;12897;50.812;4.430;2023-08-30T11:33:29;8.60;;;6.78;;
24799;SDS011;12897;50.812;4.430;2023-08-30T11:35:56;12.37;;;6.72;;
24799;SDS011;12897;50.812;4.430;2023-08-30T11:38:24;14.63;;;6.30;;
24799;SDS011;12897;50.812;4.430;2023-08-30T11:40:53;9.85;;;5.78;;
24799;SDS011;12897;50.812;4.430;2023-08-30T11:43:22;9.43;;;6.12;;
24799;SDS011;12897;50.812;4.430;2023-08-30T11:45:55;8.25;;;5.67;;
24799;SDS011;12897;50.812;4.430;2023-08-30T11:48:23;8.85;;;5.75;;
24799;SDS011;12897;50.812;4.430;2023-08-30T11:50:51;13.20;;;5.55;;
24799;SDS011;12897;50.812;4.430;2023-08-30T11:53:20;14.10;;;5.35;;
24799;SDS011;12897;50.812;4.430;2023-08-30T11:55:48;10.75;;;4.50;;
24799;SDS011;12897;50.812;4.430;2023-08-30T11:58:17;13.25;;;3.30;;
24799;SDS011;12897;50.812;4.430;2023-08-30T12:00:45;11.30;;;3.30;;
24799;SDS011;12897;50.812;4.430;2023-08-30T12:05:45;12.50;;;3.37;;
24799;SDS011;12897;50.812;4.430;2023-08-30T12:08:18;9.45;;;2.55;;
24799;SDS011;12897;50.812;4.430;2023-08-30T12:10:49;10.70;;;3.08;;
24799;SDS011;12897;50.812;4.430;2023-08-30T12:13:19;7.10;;;2.20;;
24799;SDS011;12897;50.812;4.430;2023-08-30T12:15:57;12.15;;;2.60;;
24799;SDS011;12897;50.812;4.430;2023-08-30T12:18:26;9.68;;;2.90;;
24799;SDS011;12897;50.812;4.430;2023-08-30T12:20:57;12.55;;;2.85;;
24799;SDS011;12897;50.812;4.430;2023-08-30T12:23:26;12.37;;;2.72;;
24799;SDS011;12897;50.812;4.430;2023-08-30T12:26:02;9.15;;;2.72;;
24799;SDS011;12897;50.812;4.430;2023-08-30T12:28:34;11.18;;;2.40;;
24799;SDS011;12897;50.812;4.430;2023-08-30T12:31:04;10.50;;;2.92;;
24799;SDS011;12897;50.812;4.430;2023-08-30T12:33:33;8.83;;;2.77;;
24799;SDS011;12897;50.812;4.430;2023-08-30T12:36:01;10.13;;;2.60;;
24799;SDS011;12897;50.812;4.430;2023-08-30T12:38:29;7.72;;;2.58;;
24799;SDS011;12897;50.812;4.430;2023-08-30T12:40:56;12.53;;;2.70;;
24799;SDS011;12897;50.812;4.430;2023-08-30T12:43:25;8.58;;;2.50;;
24799;SDS011;12897;50.812;4.430;2023-08-30T12:45:52;20.32;;;3.30;;
24799;SDS011;12897;50.812;4.430;2023-08-30T12:48:21;36.23;;;4.95;;
24799;SDS011;12897;50.812;4.430;2023-08-30T12:50:49;28.90;;;5.78;;
24799;SDS011;12897;50.812;4.430;2023-08-30T12:53:17;14.80;;;3.37;;
24799;SDS011;12897;50.812;4.430;2023-08-30T12:55:45;38.33;;;5.40;;
24799;SDS011;12897;50.812;4.430;2023-08-30T12:58:13;71.65;;;10.60;;
24799;SDS011;12897;50.812;4.430;2023-08-30T13:00:41;7.20;;;2.40;;
24799;SDS011;12897;50.812;4.430;2023-08-30T13:03:08;10.50;;;2.67;;
24799;SDS011;12897;50.812;4.430;2023-08-30T13:05:36;11.97;;;2.40;;
24799;SDS011;12897;50.812;4.430;2023-08-30T13:08:03;12.33;;;2.30;;
24799;SDS011;12897;50.812;4.430;2023-08-30T13:10:31;13.83;;;3.33;;
24799;SDS011;12897;50.812;4.430;2023-08-30T13:12:59;8.40;;;2.20;;
24799;SDS011;12897;50.812;4.430;2023-08-30T13:15:26;13.05;;;2.20;;
24799;SDS011;12897;50.812;4.430;2023-08-30T13:17:54;7.78;;;2.37;;
24799;SDS011;12897;50.812;4.430;2023-08-30T13:20:22;6.53;;;1.77;;
24799;SDS011;12897;50.812;4.430;2023-08-30T13:22:50;6.15;;;1.90;;
24799;SDS011;12897;50.812;4.430;2023-08-30T13:25:18;8.15;;;1.95;;
24799;SDS011;12897;50.812;4.430;2023-08-30T13:27:45;9.60;;;2.37;;
24799;SDS011;12897;50.812;4.430;2023-08-30T13:30:13;15.18;;;2.22;;
24799;SDS011;12897;50.812;4.430;2023-08-30T13:32:41;8.03;;;2.05;;
24799;SDS011;12897;50.812;4.430;2023-08-30T13:35:08;8.68;;;1.90;;
24799;SDS011;12897;50.812;4.430;2023-08-30T13:37:36;11.15;;;2.20;;
24799;SDS011;12897;50.812;4.430;2023-08-30T13:40:03;7.30;;;2.22;;
24799;SDS011;12897;50.812;4.430;2023-08-30T13:42:32;5.55;;;2.08;;
24799;SDS011;12897;50.812;4.430;2023-08-30T13:45:01;6.28;;;1.57;;
24799;SDS011;12897;50.812;4.430;2023-08-30T13:47:29;14.40;;;2.05;;
24799;SDS011;12897;50.812;4.430;2023-08-30T13:49:56;13.05;;;2.22;;
24799;SDS011;12897;50.812;4.430;2023-08-30T13:52:25;6.33;;;1.77;;
24799;SDS011;12897;50.812;4.430;2023-08-30T13:54:54;8.20;;;1.70;;
24799;SDS011;12897;50.812;4.430;2023-08-30T13:57:22;7.58;;;1.92;;
24799;SDS011;12897;50.812;4.430;2023-08-30T13:59:50;9.63;;;1.70;;
24799;SDS011;12897;50.812;4.430;2023-08-30T14:02:17;11.80;;;1.90;;
24799;SDS011;12897;50.812;4.430;2023-08-30T14:04:45;9.25;;;2.00;;
24799;SDS011;12897;50.812;4.430;2023-08-30T14:07:12;6.08;;;2.00;;
24799;SDS011;12897;50.812;4.430;2023-08-30T14:09:40;9.55;;;1.67;;
24799;SDS011;12897;50.812;4.430;2023-08-30T14:12:08;7.83;;;2.02;;
24799;SDS011;12897;50.812;4.430;2023-08-30T14:14:35;3.90;;;1.62;;
24799;SDS011;12897;50.812;4.430;2023-08-30T14:17:03;9.10;;;1.72;;
24799;SDS011;12897;50.812;4.430;2023-08-30T14:19:33;6.62;;;1.60;;
24799;SDS011;12897;50.812;4.430;2023-08-30T14:22:03;8.00;;;1.80;;
24799;SDS011;12897;50.812;4.430;2023-08-30T14:24:32;9.58;;;2.00;;
24799;SDS011;12897;50.812;4.430;2023-08-30T14:27:00;10.13;;;1.85;;
24799;SDS011;12897;50.812;4.430;2023-08-30T14:29:28;6.42;;;1.77;;
24799;SDS011;12897;50.812;4.430;2023-08-30T14:31:55;7.22;;;2.25;;
24799;SDS011;12897;50.812;4.430;2023-08-30T14:34:23;5.20;;;1.72;;
24799;SDS011;12897;50.812;4.430;2023-08-30T14:36:51;4.97;;;1.67;;
24799;SDS011;12897;50.812;4.430;2023-08-30T14:39:18;8.40;;;2.15;;
24799;SDS011;12897;50.812;4.430;2023-08-30T14:41:46;5.55;;;1.77;;
24799;SDS011;12897;50.812;4.430;2023-08-30T14:44:13;4.92;;;1.98;;
24799;SDS011;12897;50.812;4.430;2023-08-30T14:46:41;5.67;;;1.85;;
24799;SDS011;12897;50.812;4.430;2023-08-30T14:49:08;8.08;;;2.05;;
24799;SDS011;12897;50.812;4.430;2023-08-30T14:51:36;4.87;;;1.67;;
24799;SDS011;12897;50.812;4.430;2023-08-30T14:54:04;8.83;;;1.95;;
24799;SDS011;12897;50.812;4.430;2023-08-30T14:56:32;12.65;;;2.40;;
24799;SDS011;12897;50.812;4.430;2023-08-30T14:59:00;8.68;;;2.17;;
24799;SDS011;12897;50.812;4.430;2023-08-30T15:01:27;8.25;;;1.47;;
24799;SDS011;12897;50.812;4.430;2023-08-30T15:03:56;8.40;;;1.52;;
24799;SDS011;12897;50.812;4.430;2023-08-30T15:06:24;4.03;;;1.50;;
24799;SDS011;12897;50.812;4.430;2023-08-30T15:08:53;5.70;;;1.80;;
24799;SDS011;12897;50.812;4.430;2023-08-30T15:11:21;7.97;;;1.90;;